sensor_id;sensor_type;location;lat;lon;timestamp;temperature;humidity
33067;DHT22;19428;49.024;8.366;2023-02-01T00:01:44;5.40;99.90
33067;DHT22;19428;49.024;8.366;2023-02-01T00:04:10;5.40;99.90
33067;DHT22;19428;49.024;8.366;2023-02-01T00:06:36;5.40;99.90
33067;DHT22;19428;49.024;8.366;2023-02-01T00:09:02;5.40;99.90
33067;DHT22;19428;49.024;8.366;2023-02-01T00:11:27;5.40;99.90
33067;DHT22;19428;49.024;8.366;2023-02-01T00:13:53;5.50;99.90
33067;DHT22;19428;49.024;8.366;2023-02-01T00:16:21;5.40;99.90
33067;DHT22;19428;49.024;8.366;2023-02-01T00:18:50;5.50;99.90
33067;DHT22;19428;49.024;8.366;2023-02-01T00:21:18;5.40;99.90
33067;DHT22;19428;49.024;8.366;2023-02-01T00:23:45;5.50;99.90
33067;DHT22;19428;49.024;8.366;2023-02-01T00:26:26;5.50;99.90
33067;DHT22;19428;49.024;8.366;2023-02-01T00:28:53;5.40;99.90
33067;DHT22;19428;49.024;8.366;2023-02-01T00:31:18;5.50;99.90
33067;DHT22;19428;49.024;8.366;2023-02-01T00:33:47;5.50;99.90
33067;DHT22;19428;49.024;8.366;2023-02-01T00:36:13;5.50;99.90
33067;DHT22;19428;49.024;8.366;2023-02-01T00:38:39;5.50;99.90
33067;DHT22;19428;49.024;8.366;2023-02-01T00:41:13;5.50;99.90
33067;DHT22;19428;49.024;8.366;2023-02-01T00:43:40;5.50;99.90
33067;DHT22;19428;49.024;8.366;2023-02-01T00:46:05;5.50;99.90
33067;DHT22;19428;49.024;8.366;2023-02-01T00:48:31;5.50;99.90
33067;DHT22;19428;49.024;8.366;2023-02-01T00:51:05;5.50;99.90
33067;DHT22;19428;49.024;8.366;2023-02-01T00:53:32;5.50;99.90
33067;DHT22;19428;49.024;8.366;2023-02-01T00:55:57;5.60;99.90
33067;DHT22;19428;49.024;8.366;2023-02-01T00:58:24;5.50;99.90
33067;DHT22;19428;49.024;8.366;2023-02-01T01:01:01;5.50;99.90
33067;DHT22;19428;49.024;8.366;2023-02-01T01:03:27;5.50;99.90
33067;DHT22;19428;49.024;8.366;2023-02-01T01:05:56;5.40;99.90
33067;DHT22;19428;49.024;8.366;2023-02-01T01:08:23;5.40;99.90
33067;DHT22;19428;49.024;8.366;2023-02-01T01:10:48;5.40;99.90
33067;DHT22;19428;49.024;8.366;2023-02-01T01:13:16;5.40;99.90
33067;DHT22;19428;49.024;8.366;2023-02-01T01:15:41;5.40;99.90
33067;DHT22;19428;49.024;8.366;2023-02-01T01:18:08;5.40;99.90
33067;DHT22;19428;49.024;8.366;2023-02-01T01:20:35;5.40;99.90
33067;DHT22;19428;49.024;8.366;2023-02-01T01:23:01;5.40;99.90
33067;DHT22;19428;49.024;8.366;2023-02-01T01:25:27;5.50;99.90
33067;DHT22;19428;49.024;8.366;2023-02-01T01:27:52;5.40;99.90
33067;DHT22;19428;49.024;8.366;2023-02-01T01:30:18;5.40;99.90
33067;DHT22;19428;49.024;8.366;2023-02-01T01:32:44;5.40;99.90
33067;DHT22;19428;49.024;8.366;2023-02-01T01:35:10;5.40;99.90
33067;DHT22;19428;49.024;8.366;2023-02-01T01:37:36;5.50;99.90
33067;DHT22;19428;49.024;8.366;2023-02-01T01:40:03;5.50;99.90
33067;DHT22;19428;49.024;8.366;2023-02-01T01:42:29;5.50;99.90
33067;DHT22;19428;49.024;8.366;2023-02-01T01:45:04;5.50;99.90
33067;DHT22;19428;49.024;8.366;2023-02-01T01:47:35;5.50;99.90
33067;DHT22;19428;49.024;8.366;2023-02-01T01:50:04;5.50;99.90
33067;DHT22;19428;49.024;8.366;2023-02-01T01:52:31;5.60;99.90
33067;DHT22;19428;49.024;8.366;2023-02-01T01:54:57;5.50;99.90
33067;DHT22;19428;49.024;8.366;2023-02-01T01:57:30;5.60;99.90
33067;DHT22;19428;49.024;8.366;2023-02-01T02:00:12;5.50;99.90
33067;DHT22;19428;49.024;8.366;2023-02-01T02:02:39;5.60;99.90
33067;DHT22;19428;49.024;8.366;2023-02-01T02:05:06;5.50;99.90
33067;DHT22;19428;49.024;8.366;2023-02-01T02:07:35;5.50;99.90
33067;DHT22;19428;49.024;8.366;2023-02-01T02:10:04;5.50;99.90
33067;DHT22;19428;49.024;8.366;2023-02-01T02:12:31;5.50;99.90
33067;DHT22;19428;49.024;8.366;2023-02-01T02:14:58;5.60;99.90
33067;DHT22;19428;49.024;8.366;2023-02-01T02:17:39;5.50;99.90
33067;DHT22;19428;49.024;8.366;2023-02-01T02:34:40;5.50;99.90
33067;DHT22;19428;49.024;8.366;2023-02-01T02:37:18;5.60;99.90
33067;DHT22;19428;49.024;8.366;2023-02-01T02:42:29;5.60;99.90
33067;DHT22;19428;49.024;8.366;2023-02-01T02:45:26;5.60;99.90
33067;DHT22;19428;49.024;8.366;2023-02-01T02:48:19;5.60;99.90
33067;DHT22;19428;49.024;8.366;2023-02-01T02:51:03;5.60;99.90
33067;DHT22;19428;49.024;8.366;2023-02-01T02:54:10;5.60;99.90
33067;DHT22;19428;49.024;8.366;2023-02-01T02:56:57;5.60;99.90
33067;DHT22;19428;49.024;8.366;2023-02-01T02:59:43;5.60;99.90
33067;DHT22;19428;49.024;8.366;2023-02-01T03:02:29;5.60;99.90
33067;DHT22;19428;49.024;8.366;2023-02-01T03:05:13;5.60;99.90
33067;DHT22;19428;49.024;8.366;2023-02-01T03:08:01;5.60;99.90
33067;DHT22;19428;49.024;8.366;2023-02-01T03:10:42;5.50;99.90
33067;DHT22;19428;49.024;8.366;2023-02-01T03:13:24;5.50;99.90
33067;DHT22;19428;49.024;8.366;2023-02-01T03:18:33;5.50;99.90
33067;DHT22;19428;49.024;8.366;2023-02-01T03:21:06;5.50;99.90
33067;DHT22;19428;49.024;8.366;2023-02-01T03:23:35;5.50;99.90
33067;DHT22;19428;49.024;8.366;2023-02-01T03:26:02;5.50;99.90
33067;DHT22;19428;49.024;8.366;2023-02-01T03:28:30;5.50;99.90
33067;DHT22;19428;49.024;8.366;2023-02-01T03:30:58;5.50;99.90
33067;DHT22;19428;49.024;8.366;2023-02-01T03:33:25;5.50;99.90
33067;DHT22;19428;49.024;8.366;2023-02-01T03:36:18;5.50;99.90
33067;DHT22;19428;49.024;8.366;2023-02-01T03:43:51;5.60;99.90
33067;DHT22;19428;49.024;8.366;2023-02-01T03:46:22;5.60;99.90
33067;DHT22;19428;49.024;8.366;2023-02-01T03:48:50;5.60;99.90
33067;DHT22;19428;49.024;8.366;2023-02-01T03:51:18;5.70;99.90
33067;DHT22;19428;49.024;8.366;2023-02-01T03:53:46;5.70;99.90
33067;DHT22;19428;49.024;8.366;2023-02-01T03:56:15;5.70;99.90
33067;DHT22;19428;49.024;8.366;2023-02-01T03:58:42;5.70;99.90
33067;DHT22;19428;49.024;8.366;2023-02-01T04:01:23;5.70;99.90
33067;DHT22;19428;49.024;8.366;2023-02-01T04:03:48;5.70;99.90
33067;DHT22;19428;49.024;8.366;2023-02-01T04:06:15;5.70;99.90
33067;DHT22;19428;49.024;8.366;2023-02-01T04:08:40;5.60;99.90
33067;DHT22;19428;49.024;8.366;2023-02-01T04:11:06;5.60;99.90
33067;DHT22;19428;49.024;8.366;2023-02-01T04:13:31;5.50;99.90
33067;DHT22;19428;49.024;8.366;2023-02-01T04:15:57;5.60;99.90
33067;DHT22;19428;49.024;8.366;2023-02-01T04:18:22;5.50;99.90
33067;DHT22;19428;49.024;8.366;2023-02-01T04:20:48;5.60;99.90
33067;DHT22;19428;49.024;8.366;2023-02-01T04:23:13;5.60;99.90
33067;DHT22;19428;49.024;8.366;2023-02-01T04:25:41;5.60;99.90
33067;DHT22;19428;49.024;8.366;2023-02-01T04:28:06;5.60;99.90
33067;DHT22;19428;49.024;8.366;2023-02-01T04:30:32;5.60;99.90
33067;DHT22;19428;49.024;8.366;2023-02-01T04:32:58;5.50;99.90
33067;DHT22;19428;49.024;8.366;2023-02-01T04:35:23;5.50;99.90
33067;DHT22;19428;49.024;8.366;2023-02-01T04:37:49;5.50;99.90
33067;DHT22;19428;49.024;8.366;2023-02-01T04:40:14;5.50;99.90
33067;DHT22;19428;49.024;8.366;2023-02-01T04:42:41;5.40;99.90
33067;DHT22;19428;49.024;8.366;2023-02-01T04:45:07;5.50;99.90
33067;DHT22;19428;49.024;8.366;2023-02-01T04:47:34;5.40;99.90
33067;DHT22;19428;49.024;8.366;2023-02-01T04:50:00;5.40;99.90
33067;DHT22;19428;49.024;8.366;2023-02-01T04:52:25;5.40;99.90
33067;DHT22;19428;49.024;8.366;2023-02-01T04:54:52;5.40;99.90
33067;DHT22;19428;49.024;8.366;2023-02-01T04:57:19;5.50;99.90
33067;DHT22;19428;49.024;8.366;2023-02-01T04:59:45;5.50;99.90
33067;DHT22;19428;49.024;8.366;2023-02-01T05:02:10;5.50;99.90
33067;DHT22;19428;49.024;8.366;2023-02-01T05:04:36;5.50;99.90
33067;DHT22;19428;49.024;8.366;2023-02-01T05:07:02;5.50;99.90
33067;DHT22;19428;49.024;8.366;2023-02-01T05:09:27;5.50;99.90
33067;DHT22;19428;49.024;8.366;2023-02-01T05:11:53;5.40;99.90
33067;DHT22;19428;49.024;8.366;2023-02-01T05:14:37;5.40;99.90
33067;DHT22;19428;49.024;8.366;2023-02-01T05:17:02;5.40;99.90
33067;DHT22;19428;49.024;8.366;2023-02-01T05:19:28;5.40;99.90
33067;DHT22;19428;49.024;8.366;2023-02-01T05:21:53;5.40;99.90
33067;DHT22;19428;49.024;8.366;2023-02-01T05:24:19;5.30;99.90
33067;DHT22;19428;49.024;8.366;2023-02-01T05:26:46;5.30;99.90
33067;DHT22;19428;49.024;8.366;2023-02-01T05:29:12;5.30;99.90
33067;DHT22;19428;49.024;8.366;2023-02-01T05:31:38;5.30;99.90
33067;DHT22;19428;49.024;8.366;2023-02-01T05:34:04;5.30;99.90
33067;DHT22;19428;49.024;8.366;2023-02-01T05:36:30;5.30;99.90
33067;DHT22;19428;49.024;8.366;2023-02-01T05:38:56;5.30;99.90
33067;DHT22;19428;49.024;8.366;2023-02-01T05:41:22;5.30;99.90
33067;DHT22;19428;49.024;8.366;2023-02-01T05:43:47;5.40;99.90
33067;DHT22;19428;49.024;8.366;2023-02-01T05:46:13;5.40;99.90
33067;DHT22;19428;49.024;8.366;2023-02-01T05:48:40;5.40;99.90
33067;DHT22;19428;49.024;8.366;2023-02-01T05:51:06;5.40;99.90
33067;DHT22;19428;49.024;8.366;2023-02-01T05:53:31;5.50;99.90
33067;DHT22;19428;49.024;8.366;2023-02-01T05:55:57;5.50;99.90
33067;DHT22;19428;49.024;8.366;2023-02-01T05:58:23;5.40;99.90
33067;DHT22;19428;49.024;8.366;2023-02-01T06:00:48;5.50;99.90
33067;DHT22;19428;49.024;8.366;2023-02-01T06:03:14;5.50;99.90
33067;DHT22;19428;49.024;8.366;2023-02-01T06:05:39;5.50;99.90
33067;DHT22;19428;49.024;8.366;2023-02-01T06:08:05;5.50;99.90
33067;DHT22;19428;49.024;8.366;2023-02-01T06:10:33;5.60;99.90
33067;DHT22;19428;49.024;8.366;2023-02-01T06:12:58;5.60;99.90
33067;DHT22;19428;49.024;8.366;2023-02-01T06:15:24;5.60;99.90
33067;DHT22;19428;49.024;8.366;2023-02-01T06:17:49;5.60;99.90
33067;DHT22;19428;49.024;8.366;2023-02-01T06:20:16;5.70;99.90
33067;DHT22;19428;49.024;8.366;2023-02-01T06:22:41;5.70;99.90
33067;DHT22;19428;49.024;8.366;2023-02-01T06:25:09;5.70;99.90
33067;DHT22;19428;49.024;8.366;2023-02-01T06:27:35;5.80;99.90
33067;DHT22;19428;49.024;8.366;2023-02-01T06:30:06;5.80;99.90
33067;DHT22;19428;49.024;8.366;2023-02-01T06:32:35;5.80;99.90
33067;DHT22;19428;49.024;8.366;2023-02-01T06:35:01;5.80;99.90
33067;DHT22;19428;49.024;8.366;2023-02-01T06:37:26;5.80;99.90
33067;DHT22;19428;49.024;8.366;2023-02-01T06:39:54;5.80;99.90
33067;DHT22;19428;49.024;8.366;2023-02-01T06:42:20;5.80;99.90
33067;DHT22;19428;49.024;8.366;2023-02-01T06:44:45;5.80;99.90
33067;DHT22;19428;49.024;8.366;2023-02-01T06:47:11;5.80;99.90
33067;DHT22;19428;49.024;8.366;2023-02-01T06:49:36;5.80;99.90
33067;DHT22;19428;49.024;8.366;2023-02-01T06:52:02;5.90;99.90
33067;DHT22;19428;49.024;8.366;2023-02-01T06:54:28;5.90;99.90
33067;DHT22;19428;49.024;8.366;2023-02-01T06:56:57;5.90;99.90
33067;DHT22;19428;49.024;8.366;2023-02-01T06:59:23;5.90;99.90
33067;DHT22;19428;49.024;8.366;2023-02-01T07:01:48;5.90;99.90
33067;DHT22;19428;49.024;8.366;2023-02-01T07:04:14;5.90;99.90
33067;DHT22;19428;49.024;8.366;2023-02-01T07:06:40;5.90;99.90
33067;DHT22;19428;49.024;8.366;2023-02-01T07:09:06;5.80;99.90
33067;DHT22;19428;49.024;8.366;2023-02-01T07:11:32;5.70;99.90
33067;DHT22;19428;49.024;8.366;2023-02-01T07:13:58;5.60;99.90
33067;DHT22;19428;49.024;8.366;2023-02-01T07:16:24;5.60;99.90
33067;DHT22;19428;49.024;8.366;2023-02-01T07:18:50;5.60;99.90
33067;DHT22;19428;49.024;8.366;2023-02-01T07:21:16;5.60;99.90
33067;DHT22;19428;49.024;8.366;2023-02-01T07:23:42;5.50;99.90
33067;DHT22;19428;49.024;8.366;2023-02-01T07:26:10;5.50;99.90
33067;DHT22;19428;49.024;8.366;2023-02-01T07:28:37;5.50;99.90
33067;DHT22;19428;49.024;8.366;2023-02-01T07:31:11;5.50;99.90
33067;DHT22;19428;49.024;8.366;2023-02-01T07:33:38;5.50;99.90
33067;DHT22;19428;49.024;8.366;2023-02-01T07:36:06;5.60;99.90
33067;DHT22;19428;49.024;8.366;2023-02-01T07:38:32;5.50;99.90
33067;DHT22;19428;49.024;8.366;2023-02-01T07:40:59;5.50;99.90
33067;DHT22;19428;49.024;8.366;2023-02-01T07:43:25;5.50;99.90
33067;DHT22;19428;49.024;8.366;2023-02-01T07:45:52;5.50;99.90
33067;DHT22;19428;49.024;8.366;2023-02-01T07:48:18;5.50;99.90
33067;DHT22;19428;49.024;8.366;2023-02-01T07:50:44;5.50;99.90
33067;DHT22;19428;49.024;8.366;2023-02-01T07:53:10;5.60;99.90
33067;DHT22;19428;49.024;8.366;2023-02-01T07:55:38;5.60;99.90
33067;DHT22;19428;49.024;8.366;2023-02-01T07:58:04;5.60;99.90
33067;DHT22;19428;49.024;8.366;2023-02-01T08:00:30;5.60;99.90
33067;DHT22;19428;49.024;8.366;2023-02-01T08:03:14;5.60;99.90
33067;DHT22;19428;49.024;8.366;2023-02-01T08:05:39;5.60;99.90
33067;DHT22;19428;49.024;8.366;2023-02-01T08:08:05;5.60;99.90
33067;DHT22;19428;49.024;8.366;2023-02-01T08:10:31;5.70;99.90
33067;DHT22;19428;49.024;8.366;2023-02-01T08:13:00;5.70;99.90
33067;DHT22;19428;49.024;8.366;2023-02-01T08:15:27;5.80;99.90
33067;DHT22;19428;49.024;8.366;2023-02-01T08:17:53;5.80;99.90
33067;DHT22;19428;49.024;8.366;2023-02-01T08:20:20;5.80;99.90
33067;DHT22;19428;49.024;8.366;2023-02-01T08:22:50;5.80;99.90
33067;DHT22;19428;49.024;8.366;2023-02-01T08:25:16;5.90;99.90
33067;DHT22;19428;49.024;8.366;2023-02-01T08:27:41;5.90;99.90
33067;DHT22;19428;49.024;8.366;2023-02-01T08:30:08;5.90;99.90
33067;DHT22;19428;49.024;8.366;2023-02-01T08:32:34;5.80;99.90
33067;DHT22;19428;49.024;8.366;2023-02-01T08:34:59;5.80;99.90
33067;DHT22;19428;49.024;8.366;2023-02-01T08:37:25;5.70;99.90
33067;DHT22;19428;49.024;8.366;2023-02-01T08:39:51;5.70;99.90
33067;DHT22;19428;49.024;8.366;2023-02-01T08:42:17;5.70;99.90
33067;DHT22;19428;49.024;8.366;2023-02-01T08:45:02;5.70;99.90
33067;DHT22;19428;49.024;8.366;2023-02-01T08:47:28;5.70;99.90
33067;DHT22;19428;49.024;8.366;2023-02-01T08:49:54;5.70;99.90
33067;DHT22;19428;49.024;8.366;2023-02-01T08:52:20;5.70;99.90
33067;DHT22;19428;49.024;8.366;2023-02-01T08:54:47;5.70;99.90
33067;DHT22;19428;49.024;8.366;2023-02-01T08:57:12;5.80;99.90
33067;DHT22;19428;49.024;8.366;2023-02-01T08:59:38;5.80;99.90
33067;DHT22;19428;49.024;8.366;2023-02-01T09:02:04;5.80;99.90
33067;DHT22;19428;49.024;8.366;2023-02-01T09:04:29;5.90;99.90
33067;DHT22;19428;49.024;8.366;2023-02-01T09:06:55;5.90;99.90
33067;DHT22;19428;49.024;8.366;2023-02-01T09:09:22;6.00;99.90
33067;DHT22;19428;49.024;8.366;2023-02-01T09:11:48;6.00;99.90
33067;DHT22;19428;49.024;8.366;2023-02-01T09:14:15;6.10;99.90
33067;DHT22;19428;49.024;8.366;2023-02-01T09:16:41;6.10;99.90
33067;DHT22;19428;49.024;8.366;2023-02-01T09:19:06;6.10;99.90
33067;DHT22;19428;49.024;8.366;2023-02-01T09:21:32;6.10;99.90
33067;DHT22;19428;49.024;8.366;2023-02-01T09:23:58;6.20;99.90
33067;DHT22;19428;49.024;8.366;2023-02-01T09:26:23;6.20;99.90
33067;DHT22;19428;49.024;8.366;2023-02-01T09:28:49;6.20;99.90
33067;DHT22;19428;49.024;8.366;2023-02-01T09:31:14;6.20;99.90
33067;DHT22;19428;49.024;8.366;2023-02-01T09:33:40;6.30;99.90
33067;DHT22;19428;49.024;8.366;2023-02-01T09:36:06;6.30;99.90
33067;DHT22;19428;49.024;8.366;2023-02-01T09:38:32;6.30;99.90
33067;DHT22;19428;49.024;8.366;2023-02-01T09:40:58;6.30;99.90
33067;DHT22;19428;49.024;8.366;2023-02-01T09:46:21;6.30;99.90
33067;DHT22;19428;49.024;8.366;2023-02-01T09:48:45;6.30;99.90
33067;DHT22;19428;49.024;8.366;2023-02-01T09:51:16;6.30;99.90
33067;DHT22;19428;49.024;8.366;2023-02-01T09:53:47;6.40;99.90
33067;DHT22;19428;49.024;8.366;2023-02-01T09:56:26;6.40;99.90
33067;DHT22;19428;49.024;8.366;2023-02-01T10:01:23;6.40;99.90
33067;DHT22;19428;49.024;8.366;2023-02-01T10:03:50;6.50;99.90
33067;DHT22;19428;49.024;8.366;2023-02-01T10:06:24;6.50;99.90
33067;DHT22;19428;49.024;8.366;2023-02-01T10:20:07;6.60;99.90
33067;DHT22;19428;49.024;8.366;2023-02-01T10:22:41;6.60;99.90
33067;DHT22;19428;49.024;8.366;2023-02-01T10:27:39;6.70;99.90
33067;DHT22;19428;49.024;8.366;2023-02-01T10:30:18;6.70;99.90
33067;DHT22;19428;49.024;8.366;2023-02-01T10:32:44;6.80;99.90
33067;DHT22;19428;49.024;8.366;2023-02-01T10:35:18;6.80;99.90
33067;DHT22;19428;49.024;8.366;2023-02-01T10:37:45;6.80;99.90
33067;DHT22;19428;49.024;8.366;2023-02-01T10:40:22;6.80;99.90
33067;DHT22;19428;49.024;8.366;2023-02-01T10:43:00;6.80;99.90
33067;DHT22;19428;49.024;8.366;2023-02-01T10:45:32;6.80;99.90
33067;DHT22;19428;49.024;8.366;2023-02-01T10:47:59;6.80;99.90
33067;DHT22;19428;49.024;8.366;2023-02-01T10:50:53;6.80;99.90
33067;DHT22;19428;49.024;8.366;2023-02-01T10:54:03;6.80;99.90
33067;DHT22;19428;49.024;8.366;2023-02-01T10:56:29;6.90;99.90
33067;DHT22;19428;49.024;8.366;2023-02-01T10:59:02;6.90;99.90
33067;DHT22;19428;49.024;8.366;2023-02-01T11:01:37;6.90;99.90
33067;DHT22;19428;49.024;8.366;2023-02-01T11:04:05;6.90;99.90
33067;DHT22;19428;49.024;8.366;2023-02-01T11:06:36;6.90;99.90
33067;DHT22;19428;49.024;8.366;2023-02-01T11:19:18;6.80;99.90
33067;DHT22;19428;49.024;8.366;2023-02-01T11:21:48;6.80;99.90
33067;DHT22;19428;49.024;8.366;2023-02-01T11:24:27;6.80;99.90
33067;DHT22;19428;49.024;8.366;2023-02-01T11:26:56;6.80;99.90
33067;DHT22;19428;49.024;8.366;2023-02-01T11:29:23;6.80;99.90
33067;DHT22;19428;49.024;8.366;2023-02-01T11:31:56;6.90;99.90
33067;DHT22;19428;49.024;8.366;2023-02-01T11:34:59;6.90;99.90
33067;DHT22;19428;49.024;8.366;2023-02-01T11:37:20;6.90;99.90
33067;DHT22;19428;49.024;8.366;2023-02-01T11:39:54;6.90;99.90
33067;DHT22;19428;49.024;8.366;2023-02-01T11:42:20;6.90;99.90
33067;DHT22;19428;49.024;8.366;2023-02-01T11:44:47;6.90;99.90
33067;DHT22;19428;49.024;8.366;2023-02-01T11:47:30;6.80;99.90
33067;DHT22;19428;49.024;8.366;2023-02-01T11:50:15;6.90;99.90
33067;DHT22;19428;49.024;8.366;2023-02-01T11:53:02;6.90;99.90
33067;DHT22;19428;49.024;8.366;2023-02-01T12:04:05;7.00;99.90
33067;DHT22;19428;49.024;8.366;2023-02-01T12:22:57;7.00;99.90
33067;DHT22;19428;49.024;8.366;2023-02-01T12:31:33;7.10;99.90
33067;DHT22;19428;49.024;8.366;2023-02-01T12:34:14;7.10;99.90
33067;DHT22;19428;49.024;8.366;2023-02-01T12:36:46;7.20;99.90
33067;DHT22;19428;49.024;8.366;2023-02-01T12:39:22;7.10;99.90
33067;DHT22;19428;49.024;8.366;2023-02-01T12:42:16;7.10;99.90
33067;DHT22;19428;49.024;8.366;2023-02-01T12:44:53;7.10;99.90
33067;DHT22;19428;49.024;8.366;2023-02-01T12:47:26;7.10;99.90
33067;DHT22;19428;49.024;8.366;2023-02-01T12:52:53;7.10;99.90
33067;DHT22;19428;49.024;8.366;2023-02-01T12:55:24;7.10;99.90
33067;DHT22;19428;49.024;8.366;2023-02-01T12:57:58;7.20;99.90
33067;DHT22;19428;49.024;8.366;2023-02-01T13:00:40;7.30;99.90
33067;DHT22;19428;49.024;8.366;2023-02-01T13:06:07;7.40;99.90
33067;DHT22;19428;49.024;8.366;2023-02-01T13:08:56;7.40;99.90
33067;DHT22;19428;49.024;8.366;2023-02-01T13:11:38;7.40;99.90
33067;DHT22;19428;49.024;8.366;2023-02-01T13:16:41;7.40;99.90
33067;DHT22;19428;49.024;8.366;2023-02-01T13:21:55;7.40;99.90
33067;DHT22;19428;49.024;8.366;2023-02-01T13:24:37;7.40;99.90
33067;DHT22;19428;49.024;8.366;2023-02-01T13:27:05;7.50;99.90
33067;DHT22;19428;49.024;8.366;2023-02-01T13:29:31;7.50;99.90
33067;DHT22;19428;49.024;8.366;2023-02-01T13:32:11;7.40;99.90
33067;DHT22;19428;49.024;8.366;2023-02-01T13:35:01;7.40;99.90
33067;DHT22;19428;49.024;8.366;2023-02-01T13:38:04;7.50;99.90
33067;DHT22;19428;49.024;8.366;2023-02-01T13:40:41;7.50;99.90
33067;DHT22;19428;49.024;8.366;2023-02-01T13:43:29;7.50;99.90
33067;DHT22;19428;49.024;8.366;2023-02-01T13:46:02;7.60;99.90
33067;DHT22;19428;49.024;8.366;2023-02-01T13:48:39;7.50;99.90
33067;DHT22;19428;49.024;8.366;2023-02-01T13:51:05;7.50;99.90
33067;DHT22;19428;49.024;8.366;2023-02-01T13:53:34;7.50;99.90
33067;DHT22;19428;49.024;8.366;2023-02-01T13:56:22;7.50;99.90
33067;DHT22;19428;49.024;8.366;2023-02-01T13:58:50;7.60;99.90
33067;DHT22;19428;49.024;8.366;2023-02-01T14:03:55;7.60;99.90
33067;DHT22;19428;49.024;8.366;2023-02-01T14:14:37;7.70;99.90
33067;DHT22;19428;49.024;8.366;2023-02-01T14:19:32;7.70;99.90
33067;DHT22;19428;49.024;8.366;2023-02-01T14:22:31;7.60;99.90
33067;DHT22;19428;49.024;8.366;2023-02-01T14:24:54;7.60;99.90
33067;DHT22;19428;49.024;8.366;2023-02-01T14:27:26;7.60;99.90
33067;DHT22;19428;49.024;8.366;2023-02-01T14:29:58;7.70;99.90
33067;DHT22;19428;49.024;8.366;2023-02-01T14:32:30;7.70;99.90
33067;DHT22;19428;49.024;8.366;2023-02-01T14:34:59;7.70;99.90
33067;DHT22;19428;49.024;8.366;2023-02-01T14:37:34;7.70;99.90
33067;DHT22;19428;49.024;8.366;2023-02-01T14:40:02;7.70;99.90
33067;DHT22;19428;49.024;8.366;2023-02-01T14:42:48;7.70;99.90
33067;DHT22;19428;49.024;8.366;2023-02-01T15:00:47;8.00;99.90
33067;DHT22;19428;49.024;8.366;2023-02-01T15:08:54;8.00;99.90
33067;DHT22;19428;49.024;8.366;2023-02-01T15:11:20;8.00;99.90
33067;DHT22;19428;49.024;8.366;2023-02-01T15:13:50;8.00;99.90
33067;DHT22;19428;49.024;8.366;2023-02-01T15:16:19;8.00;99.90
33067;DHT22;19428;49.024;8.366;2023-02-01T15:18:45;8.00;99.90
33067;DHT22;19428;49.024;8.366;2023-02-01T15:21:18;8.00;99.90
33067;DHT22;19428;49.024;8.366;2023-02-01T15:23:44;7.90;99.90
33067;DHT22;19428;49.024;8.366;2023-02-01T15:26:25;8.00;99.90
33067;DHT22;19428;49.024;8.366;2023-02-01T15:28:50;7.90;99.90
33067;DHT22;19428;49.024;8.366;2023-02-01T15:31:38;7.90;99.90
33067;DHT22;19428;49.024;8.366;2023-02-01T15:34:04;7.90;99.90
33067;DHT22;19428;49.024;8.366;2023-02-01T15:36:30;7.90;99.90
33067;DHT22;19428;49.024;8.366;2023-02-01T15:42:15;7.90;99.90
33067;DHT22;19428;49.024;8.366;2023-02-01T15:44:44;7.90;99.90
33067;DHT22;19428;49.024;8.366;2023-02-01T15:47:23;7.90;99.90
33067;DHT22;19428;49.024;8.366;2023-02-01T15:49:54;7.80;99.90
33067;DHT22;19428;49.024;8.366;2023-02-01T15:52:35;7.80;99.90
33067;DHT22;19428;49.024;8.366;2023-02-01T15:55:05;7.80;99.90
33067;DHT22;19428;49.024;8.366;2023-02-01T15:57:38;7.80;99.90
33067;DHT22;19428;49.024;8.366;2023-02-01T16:03:23;7.80;99.90
33067;DHT22;19428;49.024;8.366;2023-02-01T16:05:58;7.80;99.90
33067;DHT22;19428;49.024;8.366;2023-02-01T16:08:27;7.80;99.90
33067;DHT22;19428;49.024;8.366;2023-02-01T16:10:59;7.80;99.90
33067;DHT22;19428;49.024;8.366;2023-02-01T16:13:26;7.70;99.90
33067;DHT22;19428;49.024;8.366;2023-02-01T16:15:51;7.80;99.90
33067;DHT22;19428;49.024;8.366;2023-02-01T16:18:17;7.70;99.90
33067;DHT22;19428;49.024;8.366;2023-02-01T16:20:43;7.70;99.90
33067;DHT22;19428;49.024;8.366;2023-02-01T16:23:09;7.70;99.90
33067;DHT22;19428;49.024;8.366;2023-02-01T16:25:36;7.70;99.90
33067;DHT22;19428;49.024;8.366;2023-02-01T16:28:03;7.70;99.90
33067;DHT22;19428;49.024;8.366;2023-02-01T16:30:30;7.70;99.90
33067;DHT22;19428;49.024;8.366;2023-02-01T16:32:57;7.70;99.90
33067;DHT22;19428;49.024;8.366;2023-02-01T16:35:32;7.60;99.90
33067;DHT22;19428;49.024;8.366;2023-02-01T16:38:04;7.60;99.90
33067;DHT22;19428;49.024;8.366;2023-02-01T16:40:34;7.60;99.90
33067;DHT22;19428;49.024;8.366;2023-02-01T16:43:00;7.60;99.90
33067;DHT22;19428;49.024;8.366;2023-02-01T16:45:25;7.60;99.90
33067;DHT22;19428;49.024;8.366;2023-02-01T16:47:54;7.60;99.90
33067;DHT22;19428;49.024;8.366;2023-02-01T16:50:24;7.60;99.90
33067;DHT22;19428;49.024;8.366;2023-02-01T16:52:51;7.60;99.90
33067;DHT22;19428;49.024;8.366;2023-02-01T16:55:19;7.60;99.90
33067;DHT22;19428;49.024;8.366;2023-02-01T16:57:46;7.60;99.90
33067;DHT22;19428;49.024;8.366;2023-02-01T17:00:12;7.70;99.90
33067;DHT22;19428;49.024;8.366;2023-02-01T17:02:38;7.60;99.90
33067;DHT22;19428;49.024;8.366;2023-02-01T17:05:05;7.60;99.90
33067;DHT22;19428;49.024;8.366;2023-02-01T17:07:31;7.60;99.90
33067;DHT22;19428;49.024;8.366;2023-02-01T17:09:56;7.70;99.90
33067;DHT22;19428;49.024;8.366;2023-02-01T17:12:24;7.60;99.90
33067;DHT22;19428;49.024;8.366;2023-02-01T17:14:50;7.60;99.90
33067;DHT22;19428;49.024;8.366;2023-02-01T17:17:17;7.60;99.90
33067;DHT22;19428;49.024;8.366;2023-02-01T17:19:50;7.60;99.90
33067;DHT22;19428;49.024;8.366;2023-02-01T17:22:19;7.70;99.90
33067;DHT22;19428;49.024;8.366;2023-02-01T17:24:45;7.70;99.90
33067;DHT22;19428;49.024;8.366;2023-02-01T17:27:11;7.60;99.90
33067;DHT22;19428;49.024;8.366;2023-02-01T17:29:36;7.60;99.90
33067;DHT22;19428;49.024;8.366;2023-02-01T17:32:03;7.50;99.90
33067;DHT22;19428;49.024;8.366;2023-02-01T17:34:28;7.50;99.90
33067;DHT22;19428;49.024;8.366;2023-02-01T17:36:54;7.50;99.90
33067;DHT22;19428;49.024;8.366;2023-02-01T17:39:20;7.60;99.90
33067;DHT22;19428;49.024;8.366;2023-02-01T17:42:07;7.60;99.90
33067;DHT22;19428;49.024;8.366;2023-02-01T17:44:33;7.60;99.90
33067;DHT22;19428;49.024;8.366;2023-02-01T17:46:59;7.60;99.90
33067;DHT22;19428;49.024;8.366;2023-02-01T17:49:25;7.60;99.90
33067;DHT22;19428;49.024;8.366;2023-02-01T17:51:53;7.60;99.90
33067;DHT22;19428;49.024;8.366;2023-02-01T17:54:19;7.60;99.90
33067;DHT22;19428;49.024;8.366;2023-02-01T17:56:45;7.60;99.90
33067;DHT22;19428;49.024;8.366;2023-02-01T17:59:13;7.50;99.90
33067;DHT22;19428;49.024;8.366;2023-02-01T18:01:40;7.60;99.90
33067;DHT22;19428;49.024;8.366;2023-02-01T18:04:07;7.60;99.90
33067;DHT22;19428;49.024;8.366;2023-02-01T18:06:34;7.50;99.90
33067;DHT22;19428;49.024;8.366;2023-02-01T18:09:00;7.50;99.90
33067;DHT22;19428;49.024;8.366;2023-02-01T18:11:25;7.50;99.90
33067;DHT22;19428;49.024;8.366;2023-02-01T18:13:53;7.50;99.90
33067;DHT22;19428;49.024;8.366;2023-02-01T18:16:21;7.50;99.90
33067;DHT22;19428;49.024;8.366;2023-02-01T18:18:47;7.50;99.90